Time;durP1;ratioP1;P1;durP2;ratioP2;P2;SDS_P1;SDS_P2;PMS_P1;PMS_P2;Temp;Humidity;BMP_temperature;BMP_pressure;BME280_temperature;BME280_humidity;BME280_pressure;Samples;Min_cycle;Max_cycle;Signal;HPM_P1;HPM_P2
2024/04/22 00:03:38;;;;;;;7.90;4.70;;;;;;;7.32;66.52;99134.15;232539;203;138204;-53
2024/04/22 00:08:41;;;;;;;8.90;3.90;;;;;;;7.30;66.60;99137.40;232454;200;138136;-54
2024/04/22 00:13:43;;;;;;;5.40;3.70;;;;;;;7.27;66.50;99139.14;232520;206;153013;-53
2024/04/22 00:18:46;;;;;;;6.60;3.60;;;;;;;7.23;66.53;99132.45;232725;206;136945;-54
2024/04/22 00:23:49;;;;;;;7.80;3.90;;;;;;;7.23;66.45;99132.81;232466;203;137069;-53
2024/04/22 00:28:52;;;;;;;7.00;4.10;;;;;;;7.21;66.39;99125.86;232409;207;153026;-52
2024/04/22 00:33:55;;;;;;;5.30;4.00;;;;;;;7.14;66.26;99117.15;232374;203;137595;-53
2024/04/22 00:38:58;;;;;;;6.40;3.90;;;;;;;7.13;66.34;99121.46;232500;206;137135;-54
2024/04/22 00:44:02;;;;;;;7.50;4.30;;;;;;;7.10;66.52;99121.08;232371;204;153261;-53
2024/04/22 00:49:05;;;;;;;5.80;4.00;;;;;;;7.07;66.54;99119.61;232613;200;137422;-53
2024/04/22 00:54:11;;;;;;;6.70;4.00;;;;;;;7.06;66.43;99113.11;232378;204;140433;-53
2024/04/22 00:59:14;;;;;;;6.50;3.90;;;;;;;7.06;66.30;99113.64;232392;207;154024;-53
2024/04/22 01:04:17;;;;;;;6.10;3.40;;;;;;;7.03;66.46;99111.86;232433;203;138394;-53
2024/04/22 01:09:20;;;;;;;7.10;4.00;;;;;;;7.01;66.51;99104.89;232408;206;137765;-53
2024/04/22 01:14:23;;;;;;;6.20;4.10;;;;;;;6.97;66.46;99097.01;232395;206;153284;-52
2024/04/22 01:19:26;;;;;;;6.90;3.70;;;;;;;6.95;66.64;99100.09;232609;204;137594;-54
2024/04/22 01:24:29;;;;;;;6.50;3.60;;;;;;;6.94;66.94;99099.41;232421;206;137986;-52
2024/04/22 01:29:32;;;;;;;5.30;4.10;;;;;;;6.94;66.92;99099.26;232454;207;154718;-52
2024/04/22 01:34:34;;;;;;;5.40;3.70;;;;;;;6.93;66.80;99098.77;232400;204;137940;-51
2024/04/22 01:39:37;;;;;;;6.70;3.40;;;;;;;6.93;66.34;99096.48;232460;203;137989;-53
2024/04/22 01:44:40;;;;;;;8.80;3.70;;;;;;;6.96;65.91;99101.40;232436;199;153323;-53
2024/04/22 01:49:43;;;;;;;6.90;4.10;;;;;;;7.00;66.01;99100.38;232440;206;138248;-54
2024/04/22 01:54:46;;;;;;;5.40;3.60;;;;;;;7.05;65.90;99099.23;232511;206;137808;-52
2024/04/22 01:59:49;;;;;;;5.70;3.80;;;;;;;7.06;65.67;99102.71;232428;203;153839;-53
2024/04/22 02:04:52;;;;;;;7.60;3.80;;;;;;;7.02;65.52;99100.30;232400;203;138634;-53
2024/04/22 02:09:55;;;;;;;5.70;3.70;;;;;;;7.01;65.43;99103.32;232346;207;138292;-53
2024/04/22 02:15:12;;;;;;;7.20;3.80;;;;;;;6.94;64.94;99102.06;232390;203;153218;-53
2024/04/22 02:20:15;;;;;;;4.80;3.30;;;;;;;6.85;64.46;99105.42;232394;204;137545;-54
2024/04/22 02:25:17;;;;;;;4.80;3.60;;;;;;;6.79;64.49;99108.73;232609;204;137785;-53
2024/04/22 02:30:20;;;;;;;5.60;3.70;;;;;;;6.77;64.65;99111.29;232458;203;151981;-54
2024/04/22 02:35:24;;;;;;;6.50;4.00;;;;;;;6.73;64.76;99113.41;232399;207;138059;-54
2024/04/22 02:40:27;;;;;;;6.90;3.80;;;;;;;6.70;64.85;99109.86;232431;202;137749;-54
2024/04/22 02:45:31;;;;;;;5.60;3.90;;;;;;;6.68;65.12;99114.70;232433;206;152330;-53
2024/04/22 02:50:34;;;;;;;8.50;4.10;;;;;;;6.64;65.09;99117.52;232261;204;137495;-53
2024/04/22 02:55:36;;;;;;;7.90;4.10;;;;;;;6.67;65.36;99120.76;232524;203;137856;-53
2024/04/22 03:00:46;;;;;;;5.50;4.00;;;;;;;6.67;65.42;99122.30;232509;204;153092;-52
2024/04/22 03:05:49;;;;;;;6.10;3.80;;;;;;;6.65;65.33;99133.00;232460;204;137085;-53
2024/04/22 03:10:59;;;;;;;6.50;3.90;;;;;;;6.60;65.33;99132.67;232436;206;137674;-52
2024/04/22 03:16:03;;;;;;;5.60;3.70;;;;;;;6.58;64.57;99138.04;232408;200;153205;-53
2024/04/22 03:21:06;;;;;;;7.40;3.50;;;;;;;6.54;64.46;99132.58;232460;203;137698;-52
2024/04/22 03:26:10;;;;;;;6.00;3.60;;;;;;;6.52;64.47;99134.81;232398;207;137065;-53
2024/04/22 03:31:13;;;;;;;5.80;3.70;;;;;;;6.49;64.53;99136.71;232497;206;153884;-51
2024/04/22 03:36:16;;;;;;;5.70;3.20;;;;;;;6.44;64.39;99139.38;232351;204;136909;-53
2024/04/22 03:41:19;;;;;;;6.70;3.60;;;;;;;6.37;64.36;99137.04;232395;204;138488;-54
2024/04/22 03:51:44;;;;;;;23.30;16.50;;;;;;;6.41;64.87;99146.73;232327;207;138999;-55
2024/04/22 03:56:47;;;;;;;10.70;5.90;;;;;;;6.41;64.61;99158.56;232394;199;137860;-54
2024/04/22 04:01:50;;;;;;;7.00;3.80;;;;;;;6.39;64.17;99163.04;232487;203;153348;-54
2024/04/22 04:06:53;;;;;;;6.00;3.30;;;;;;;6.33;63.77;99158.70;232539;207;137367;-53
2024/04/22 04:11:56;;;;;;;6.40;4.10;;;;;;;6.26;63.50;99158.67;232447;206;137241;-54
2024/04/22 04:16:59;;;;;;;41.70;31.30;;;;;;;6.23;64.13;99158.62;232377;204;152993;-50
2024/04/22 04:22:02;;;;;;;18.10;10.10;;;;;;;6.30;64.01;99163.05;232356;206;138085;-53
2024/04/22 04:27:05;;;;;;;97.60;64.50;;;;;;;6.33;63.88;99162.78;232416;204;139108;-54
2024/04/22 04:32:08;;;;;;;46.20;30.40;;;;;;;6.32;63.34;99164.40;232511;207;153158;-53
2024/04/22 04:37:11;;;;;;;10.40;5.90;;;;;;;6.52;64.34;99168.09;232497;204;137558;-53
2024/04/22 04:42:14;;;;;;;5.20;3.40;;;;;;;6.49;62.50;99170.73;232461;203;142423;-53
2024/04/22 04:47:17;;;;;;;4.40;3.10;;;;;;;6.39;62.38;99173.59;232427;207;153880;-54
2024/04/22 04:52:20;;;;;;;6.10;2.60;;;;;;;6.33;62.19;99177.20;232388;207;137309;-53
2024/04/22 04:57:23;;;;;;;4.30;2.70;;;;;;;6.26;62.10;99181.55;232451;207;137644;-55
2024/04/22 05:02:26;;;;;;;3.70;2.50;;;;;;;6.23;61.89;99186.09;232435;207;153343;-54
2024/04/22 05:07:31;;;;;;;4.80;2.70;;;;;;;6.23;61.54;99190.68;232609;206;137402;-53
2024/04/22 05:12:34;;;;;;;3.80;2.50;;;;;;;6.22;61.70;99195.12;232432;204;138043;-53
2024/04/22 05:17:36;;;;;;;6.20;2.60;;;;;;;6.21;61.36;99201.33;232388;203;153752;-52
2024/04/22 05:22:40;;;;;;;6.10;2.60;;;;;;;6.22;61.19;99202.67;232500;207;136997;-52
2024/04/22 05:27:43;;;;;;;5.80;3.00;;;;;;;6.24;61.25;99209.67;232397;203;138266;-51
2024/04/22 05:32:46;;;;;;;6.20;3.40;;;;;;;6.26;61.07;99208.16;232368;203;152975;-54
2024/04/22 05:37:49;;;;;;;8.50;3.20;;;;;;;6.31;60.72;99214.13;232350;204;137869;-54
2024/04/22 05:42:52;;;;;;;585.90;441.20;;;;;;;6.36;61.15;99222.02;232688;203;137868;-53
2024/04/22 05:47:55;;;;;;;12.20;8.50;;;;;;;6.58;61.61;99225.15;232422;207;153310;-53
2024/04/22 05:52:58;;;;;;;6.90;4.70;;;;;;;6.67;60.00;99230.58;232522;204;137171;-54
2024/04/22 05:58:01;;;;;;;8.30;4.20;;;;;;;6.58;59.38;99236.23;232408;203;137344;-53
2024/04/22 06:03:04;;;;;;;6.30;3.70;;;;;;;6.53;59.11;99239.10;232540;203;153285;-54
2024/04/22 06:08:07;;;;;;;5.90;3.70;;;;;;;6.55;59.16;99242.02;232380;203;138362;-53
2024/04/22 06:13:10;;;;;;;5.60;3.60;;;;;;;6.62;59.43;99242.40;232529;204;137658;-54
2024/04/22 06:18:13;;;;;;;8.70;3.80;;;;;;;6.70;59.20;99251.95;232364;203;154221;-54
2024/04/22 06:23:16;;;;;;;7.40;4.00;;;;;;;6.75;59.23;99254.56;232442;199;137590;-53
2024/04/22 06:28:19;;;;;;;5.60;4.00;;;;;;;6.79;59.58;99255.61;232430;203;137234;-54
2024/04/22 06:33:23;;;;;;;6.70;4.40;;;;;;;6.79;59.63;99263.02;232532;203;153080;-56
2024/04/22 06:38:28;;;;;;;135.10;96.50;;;;;;;6.82;60.25;99265.18;232319;207;137403;-54
2024/04/22 06:43:31;;;;;;;68.50;46.30;;;;;;;6.88;60.21;99267.73;232616;204;138153;-55
2024/04/22 06:48:34;;;;;;;13.60;8.60;;;;;;;7.00;60.47;99268.27;232328;204;154692;-53
2024/04/22 06:53:37;;;;;;;5.30;3.90;;;;;;;7.08;60.05;99278.17;232444;204;137310;-53
2024/04/22 06:58:40;;;;;;;6.70;4.40;;;;;;;7.11;59.77;99282.09;232371;203;137794;-54
2024/04/22 07:03:43;;;;;;;8.00;4.40;;;;;;;7.11;59.75;99283.87;232483;204;153962;-55
2024/04/22 07:08:46;;;;;;;7.00;4.40;;;;;;;7.10;59.85;99288.31;232405;203;138710;-54
2024/04/22 07:13:49;;;;;;;6.80;3.90;;;;;;;7.11;59.86;99294.80;232458;204;138111;-55
2024/04/22 07:18:52;;;;;;;8.30;4.60;;;;;;;7.16;59.98;99292.81;232558;206;154699;-54
2024/04/22 07:23:55;;;;;;;7.30;4.20;;;;;;;7.18;60.30;99293.41;232455;206;137557;-55
2024/04/22 07:28:58;;;;;;;10.70;4.70;;;;;;;7.22;60.09;99299.95;232337;204;138003;-55
2024/04/22 07:34:02;;;;;;;6.30;4.00;;;;;;;7.25;59.05;99305.48;232407;206;153985;-54
2024/04/22 07:39:06;;;;;;;92.50;74.30;;;;;;;7.32;58.45;99305.85;232384;203;138222;-54
2024/04/22 07:44:09;;;;;;;13.90;8.00;;;;;;;7.45;58.02;99304.39;232388;207;137999;-54
2024/04/22 07:49:13;;;;;;;5.20;2.60;;;;;;;7.58;55.25;99313.35;232569;204;153194;-53
2024/04/22 07:54:16;;;;;;;8.20;4.80;;;;;;;7.70;53.56;99317.39;232358;203;137060;-53
2024/04/22 07:59:19;;;;;;;4.80;2.60;;;;;;;7.83;52.42;99320.13;232346;207;138009;-55
2024/04/22 08:04:22;;;;;;;3.10;1.90;;;;;;;7.94;51.70;99318.92;232407;203;154414;-54
2024/04/22 08:09:26;;;;;;;5.30;2.70;;;;;;;7.97;51.33;99321.61;232395;203;139178;-53
2024/04/22 08:14:29;;;;;;;5.80;2.50;;;;;;;8.03;51.50;99322.73;232618;203;138100;-54
2024/04/22 08:19:32;;;;;;;210.90;159.30;;;;;;;8.11;52.14;99322.73;232612;203;153317;-55
2024/04/22 08:24:35;;;;;;;15.10;9.70;;;;;;;8.20;53.10;99323.35;232266;203;137708;-54
2024/04/22 08:29:38;;;;;;;5.10;3.60;;;;;;;8.28;51.31;99326.68;232313;204;137496;-55
2024/04/22 08:34:41;;;;;;;4.90;3.30;;;;;;;8.29;51.28;99328.55;232198;203;153175;-54
2024/04/22 08:39:44;;;;;;;5.10;2.70;;;;;;;8.34;52.32;99327.65;232140;207;138284;-54
2024/04/22 08:44:49;;;;;;;6.10;3.50;;;;;;;8.46;51.50;99325.85;232233;206;137921;-53
2024/04/22 08:49:52;;;;;;;9.90;6.70;;;;;;;8.58;50.52;99323.34;232231;203;153512;-54
2024/04/22 08:54:56;;;;;;;5.80;3.60;;;;;;;8.63;50.13;99328.21;232452;203;137392;-52
2024/04/22 08:59:59;;;;;;;4.90;3.40;;;;;;;8.68;50.06;99332.73;232323;199;137375;-56
2024/04/22 09:05:04;;;;;;;9.80;3.10;;;;;;;8.91;50.51;99328.94;232289;206;153085;-51
2024/04/22 09:10:11;;;;;;;5.40;3.50;;;;;;;9.17;49.11;99327.26;232382;203;138348;-55
2024/04/22 09:15:34;;;;;;;5.20;3.10;;;;;;;9.16;47.85;99334.89;231903;207;138655;-53
2024/04/22 09:20:37;;;;;;;9.30;3.60;;;;;;;9.26;47.65;99334.91;232272;203;152898;-54
2024/04/22 09:25:40;;;;;;;5.10;3.20;;;;;;;9.40;47.31;99341.79;232463;207;139383;-52
2024/04/22 09:30:48;;;;;;;5.90;3.10;;;;;;;9.63;47.91;99340.07;232424;206;137879;-55
2024/04/22 09:35:51;;;;;;;6.20;3.30;;;;;;;9.68;46.50;99342.97;232365;204;154062;-55
2024/04/22 09:40:55;;;;;;;5.40;3.20;;;;;;;9.54;47.21;99347.64;232299;207;137892;-52
2024/04/22 09:46:02;;;;;;;9.10;3.50;;;;;;;9.50;46.38;99348.20;232266;204;138585;-54
2024/04/22 09:51:08;;;;;;;4.80;3.20;;;;;;;9.48;45.81;99347.59;232215;207;153237;-53
2024/04/22 09:56:17;;;;;;;5.50;3.30;;;;;;;9.50;45.89;99347.45;232270;204;138147;-53
2024/04/22 10:01:21;;;;;;;6.00;3.40;;;;;;;9.49;45.46;99343.09;232451;207;139413;-52
2024/04/22 10:06:26;;;;;;;5.20;3.20;;;;;;;9.40;45.34;99346.38;232205;199;153483;-54
2024/04/22 10:11:30;;;;;;;5.50;3.10;;;;;;;9.33;46.77;99343.20;232214;206;137205;-54
2024/04/22 10:16:34;;;;;;;6.20;3.70;;;;;;;9.33;47.39;99341.27;232405;203;137394;-52
2024/04/22 10:21:40;;;;;;;5.30;3.30;;;;;;;9.28;46.27;99345.46;232284;207;153754;-53
2024/04/22 10:26:43;;;;;;;5.10;3.20;;;;;;;9.25;46.50;99347.36;232322;206;137479;-53
2024/04/22 10:32:03;;;;;;;6.50;3.00;;;;;;;9.31;46.05;99342.78;232327;207;141968;-52
2024/04/22 10:37:07;;;;;;;6.90;3.40;;;;;;;9.34;45.69;99345.14;232528;203;155153;-52
2024/04/22 10:42:11;;;;;;;6.00;3.30;;;;;;;9.38;45.62;99344.23;232290;206;138399;-53
2024/04/22 10:47:14;;;;;;;5.30;2.80;;;;;;;9.37;45.72;99342.83;232249;206;141494;-54
2024/04/22 10:52:17;;;;;;;4.60;2.80;;;;;;;9.35;45.79;99342.41;232285;206;153086;-53
2024/04/22 10:57:20;;;;;;;6.40;2.60;;;;;;;9.37;45.55;99346.01;232314;204;137287;-52
2024/04/22 11:02:23;;;;;;;5.70;2.90;;;;;;;9.55;46.02;99346.64;232223;203;139019;-53
2024/04/22 11:07:30;;;;;;;8.30;2.40;;;;;;;9.82;44.93;99348.98;232564;203;152918;-54
2024/04/22 11:12:33;;;;;;;3.80;2.80;;;;;;;9.77;44.31;99343.39;232246;204;138116;-52
2024/04/22 11:17:36;;;;;;;4.70;2.70;;;;;;;9.73;44.44;99343.94;232424;206;137410;-55
2024/04/22 11:22:40;;;;;;;4.50;2.60;;;;;;;9.72;44.33;99348.63;232303;200;152417;-54
2024/04/22 11:27:43;;;;;;;5.00;2.50;;;;;;;9.68;44.08;99346.52;232235;207;138405;-54
2024/04/22 11:32:49;;;;;;;4.50;2.60;;;;;;;9.66;44.29;99345.70;232445;204;137440;-53
2024/04/22 11:37:52;;;;;;;4.30;2.60;;;;;;;9.70;43.90;99346.77;232456;205;153311;-53
2024/04/22 11:42:56;;;;;;;3.60;2.40;;;;;;;9.65;43.83;99343.64;232534;206;140582;-54
2024/04/22 11:47:59;;;;;;;88.10;66.80;;;;;;;9.64;44.17;99345.82;232389;199;138172;-54
2024/04/22 11:53:02;;;;;;;6.30;4.40;;;;;;;9.69;45.12;99346.10;232230;207;153943;-52
2024/04/22 11:58:24;;;;;;;4.70;2.90;;;;;;;9.67;43.85;99347.27;232329;204;140334;-53
2024/04/22 12:03:26;;;;;;;4.00;2.50;;;;;;;9.63;44.25;99347.65;232295;206;137685;-54
2024/04/22 12:08:30;;;;;;;3.30;2.40;;;;;;;9.63;44.59;99344.64;232403;203;153958;-54
2024/04/22 12:13:33;;;;;;;4.80;2.60;;;;;;;9.66;43.98;99342.39;232445;200;137705;-53
2024/04/22 12:18:36;;;;;;;5.10;2.60;;;;;;;9.72;44.04;99338.16;232326;203;138149;-53
2024/04/22 12:23:38;;;;;;;5.00;2.30;;;;;;;9.85;43.75;99335.65;232341;203;153603;-53
2024/04/22 12:28:41;;;;;;;3.90;2.50;;;;;;;9.89;43.81;99335.27;232295;200;137173;-54
2024/04/22 12:33:45;;;;;;;9.20;2.40;;;;;;;9.95;43.06;99333.16;232259;199;141502;-53
2024/04/22 12:39:03;;;;;;;59.70;40.30;;;;;;;10.01;45.06;99329.29;232250;203;156222;-52
2024/04/22 12:44:08;;;;;;;7.00;2.50;;;;;;;10.14;43.88;99325.57;232281;207;138168;-53
2024/04/22 12:54:32;;;;;;;6.90;3.00;;;;;;;9.96;42.94;99333.98;232238;207;153021;-53
2024/04/22 12:59:36;;;;;;;5.70;2.90;;;;;;;9.87;43.80;99335.55;232106;203;138916;-54
2024/04/22 13:04:39;;;;;;;6.30;3.00;;;;;;;9.80;43.87;99344.66;232387;207;137451;-54
2024/04/22 13:09:42;;;;;;;4.00;2.80;;;;;;;9.77;44.85;99343.90;232263;200;153072;-54
2024/04/22 13:14:45;;;;;;;5.20;2.70;;;;;;;9.72;44.94;99351.63;232339;203;137719;-52
2024/04/22 13:19:48;;;;;;;4.30;2.80;;;;;;;9.67;44.05;99360.54;232405;203;137994;-52
2024/04/22 13:24:51;;;;;;;5.50;2.80;;;;;;;9.69;43.31;99364.14;232578;203;153123;-53
2024/04/22 13:29:56;;;;;;;12.20;6.20;;;;;;;9.69;44.79;99370.35;232364;204;138612;-54
2024/04/22 13:34:59;;;;;;;5.70;3.00;;;;;;;9.77;43.81;99366.05;232372;206;238113;-52
2024/04/22 13:40:02;;;;;;;6.50;3.20;;;;;;;9.82;43.81;99371.10;232344;206;153031;-52
2024/04/22 13:45:05;;;;;;;6.00;3.20;;;;;;;9.82;43.30;99372.52;232335;203;137465;-52
2024/04/22 13:50:08;;;;;;;5.00;2.80;;;;;;;9.78;42.88;99383.71;232242;206;138139;-52
2024/04/22 13:55:11;;;;;;;5.00;3.20;;;;;;;9.73;42.86;99388.26;232460;206;153778;-54
2024/04/22 14:00:14;;;;;;;5.20;2.80;;;;;;;9.67;43.46;99388.54;232283;204;137512;-53
2024/04/22 14:05:17;;;;;;;5.20;3.20;;;;;;;9.67;42.97;99390.82;232452;199;138897;-52
2024/04/22 14:10:20;;;;;;;5.90;3.10;;;;;;;9.68;42.88;99390.09;232364;200;153973;-52
2024/04/22 14:15:23;;;;;;;6.00;2.90;;;;;;;9.61;42.86;99393.84;232317;203;138118;-54
2024/04/22 14:20:48;;;;;;;6.30;3.10;;;;;;;9.58;43.69;99388.31;232336;207;138143;-54
2024/04/22 14:25:51;;;;;;;7.10;3.00;;;;;;;9.59;44.00;99392.50;232280;206;153327;-52
2024/04/22 14:30:54;;;;;;;4.50;3.20;;;;;;;9.59;44.12;99398.21;232488;206;138221;-54
2024/04/22 14:35:58;;;;;;;5.20;3.20;;;;;;;9.57;43.26;99401.67;232368;206;137568;-54
2024/04/22 14:41:01;;;;;;;5.40;3.00;;;;;;;9.55;43.84;99412.23;232315;204;153467;-52
2024/04/22 14:46:04;;;;;;;71.20;53.10;;;;;;;9.53;44.23;99417.61;232244;206;137593;-53
2024/04/22 14:51:07;;;;;;;8.00;5.40;;;;;;;9.60;44.25;99429.12;232312;204;137146;-54
2024/04/22 14:56:10;;;;;;;6.70;2.90;;;;;;;9.58;42.86;99426.55;232233;206;153586;-54
2024/04/22 15:01:13;;;;;;;4.80;2.90;;;;;;;9.54;42.80;99432.47;232486;207;137983;-56
2024/04/22 15:06:16;;;;;;;6.80;2.80;;;;;;;9.43;42.59;99434.41;232388;203;138204;-56
2024/04/22 15:11:20;;;;;;;9.00;4.10;;;;;;;9.38;43.28;99429.90;232438;206;153812;-56
2024/04/22 15:16:23;;;;;;;3.80;2.90;;;;;;;9.35;44.55;99432.55;232385;206;142223;-56
2024/04/22 15:21:26;;;;;;;6.40;3.40;;;;;;;9.31;45.05;99440.54;232343;203;137760;-54
2024/04/22 15:26:29;;;;;;;248.10;164.20;;;;;;;9.35;46.92;99435.21;232304;206;153846;-54
2024/04/22 15:31:32;;;;;;;20.80;13.50;;;;;;;9.53;50.75;99430.91;232483;203;137821;-54
2024/04/22 15:36:35;;;;;;;8.70;4.70;;;;;;;9.79;46.31;99430.11;232301;207;138001;-56
2024/04/22 15:41:38;;;;;;;4.90;3.60;;;;;;;9.67;44.59;99422.58;232300;207;153612;-56
2024/04/22 15:46:41;;;;;;;5.00;3.00;;;;;;;9.58;44.06;99422.70;232361;206;138119;-55
2024/04/22 15:51:44;;;;;;;5.80;3.00;;;;;;;9.51;43.86;99425.91;232287;206;137997;-54
2024/04/22 15:56:47;;;;;;;6.50;3.70;;;;;;;9.46;44.47;99433.57;232258;206;153097;-55
2024/04/22 16:01:50;;;;;;;7.00;4.80;;;;;;;9.39;46.28;99441.71;232470;206;137561;-54
2024/04/22 16:06:53;;;;;;;7.50;5.40;;;;;;;9.31;46.97;99447.95;232530;206;138353;-55
2024/04/22 16:11:56;;;;;;;12.70;6.80;;;;;;;9.20;47.30;99449.04;232264;207;153633;-54
2024/04/22 16:16:59;;;;;;;244.40;198.20;;;;;;;9.06;47.81;99453.43;232345;207;138404;-53
2024/04/22 16:22:02;;;;;;;291.00;212.90;;;;;;;9.01;49.34;99458.27;232293;207;138281;-52
2024/04/22 16:27:05;;;;;;;18.00;13.60;;;;;;;8.98;49.61;99458.77;232509;203;159129;-52
2024/04/22 16:32:08;;;;;;;8.40;5.70;;;;;;;8.90;49.05;99458.86;232276;203;138042;-52
2024/04/22 16:37:12;;;;;;;7.70;4.90;;;;;;;8.79;49.23;99457.42;232467;207;137400;-51
2024/04/22 16:42:15;;;;;;;7.50;5.30;;;;;;;8.75;49.15;99459.77;232341;203;153259;-51
2024/04/22 16:47:19;;;;;;;10.60;6.10;;;;;;;8.69;49.51;99463.55;232267;207;137976;-49
2024/04/22 16:52:22;;;;;;;11.70;7.10;;;;;;;8.63;49.52;99466.88;232238;206;137722;-52
2024/04/22 16:57:25;;;;;;;11.20;6.60;;;;;;;8.57;50.08;99471.36;232272;207;153310;-53
2024/04/22 17:02:28;;;;;;;11.70;6.10;;;;;;;8.53;50.46;99473.69;232387;203;138408;-52
2024/04/22 17:07:31;;;;;;;10.40;6.80;;;;;;;8.49;50.58;99476.90;232422;204;137711;-52
2024/04/22 17:12:34;;;;;;;119.50;86.70;;;;;;;8.48;51.06;99479.04;232300;207;153823;-52
2024/04/22 17:17:37;;;;;;;11.40;8.60;;;;;;;8.50;50.96;99477.52;231114;204;138845;-52
2024/04/22 17:22:42;;;;;;;11.80;7.30;;;;;;;8.43;50.36;99476.81;232321;203;137639;-53
2024/04/22 17:27:47;;;;;;;10.40;6.30;;;;;;;8.35;50.36;99489.34;232391;203;153188;-50
2024/04/22 17:32:50;;;;;;;9.50;6.30;;;;;;;8.26;50.40;99487.78;232330;204;137468;-54
2024/04/22 17:37:53;;;;;;;8.60;6.60;;;;;;;8.21;50.65;99491.03;232333;206;137794;-53
2024/04/22 17:42:56;;;;;;;9.00;6.30;;;;;;;8.17;50.90;99496.87;232383;203;153192;-54
2024/04/22 17:48:00;;;;;;;7.80;5.90;;;;;;;8.12;50.46;99501.69;232406;199;137610;-53
2024/04/22 17:53:03;;;;;;;10.20;6.20;;;;;;;8.08;50.54;99507.53;232388;203;141764;-54
2024/04/22 17:58:06;;;;;;;8.40;6.70;;;;;;;8.03;50.80;99510.94;232314;204;153406;-54
2024/04/22 18:03:11;;;;;;;10.90;6.70;;;;;;;7.98;51.03;99518.55;232443;203;138955;-54
2024/04/22 18:08:14;;;;;;;196.30;142.50;;;;;;;8.00;51.88;99527.88;232306;203;138533;-54
2024/04/22 18:13:17;;;;;;;13.30;9.90;;;;;;;8.17;51.77;99534.53;232360;206;162352;-52
2024/04/22 18:18:20;;;;;;;9.20;6.80;;;;;;;8.12;50.60;99545.86;232467;200;138740;-54
2024/04/22 18:23:23;;;;;;;9.20;6.50;;;;;;;8.03;50.67;99554.59;232538;199;137388;-53
2024/04/22 18:28:26;;;;;;;9.60;6.40;;;;;;;7.93;50.94;99558.04;232679;203;153763;-54
2024/04/22 18:33:30;;;;;;;9.80;6.70;;;;;;;7.86;50.92;99563.95;232556;206;140272;-54
2024/04/22 18:38:33;;;;;;;10.00;6.00;;;;;;;7.79;50.90;99569.34;232708;204;138054;-54
2024/04/22 18:43:35;;;;;;;10.00;6.00;;;;;;;7.73;50.74;99572.08;232780;206;153950;-54
2024/04/22 18:48:38;;;;;;;15.50;7.30;;;;;;;7.71;50.72;99574.85;232662;203;137240;-54
2024/04/22 18:53:41;;;;;;;357.70;308.80;;;;;;;7.68;51.04;99576.38;232653;206;137976;-54
2024/04/22 18:58:44;;;;;;;35.60;27.00;;;;;;;7.79;52.62;99580.16;232702;206;153270;-54
2024/04/22 19:03:47;;;;;;;13.10;8.50;;;;;;;7.88;51.27;99578.71;232626;199;139327;-54
2024/04/22 19:08:50;;;;;;;10.60;7.20;;;;;;;7.76;51.19;99572.50;232710;199;138925;-53
2024/04/22 19:13:53;;;;;;;9.30;6.60;;;;;;;7.71;51.15;99569.02;232614;206;152998;-55
2024/04/22 19:18:56;;;;;;;10.10;6.70;;;;;;;7.61;50.99;99576.64;232886;203;137610;-54
2024/04/22 19:23:59;;;;;;;9.00;6.10;;;;;;;7.53;50.77;99584.77;232559;206;137789;-54
2024/04/22 19:29:02;;;;;;;10.40;6.50;;;;;;;7.44;50.73;99590.60;232709;203;153083;-54
2024/04/22 19:34:05;;;;;;;259.80;210.90;;;;;;;7.40;51.87;99589.71;232522;203;140527;-55
2024/04/22 19:39:08;;;;;;;15.30;10.50;;;;;;;7.45;51.83;99594.79;232658;202;138861;-54
2024/04/22 19:44:11;;;;;;;11.10;6.40;;;;;;;7.42;51.18;99597.05;232701;202;154057;-55
2024/04/22 19:49:14;;;;;;;8.30;5.90;;;;;;;7.33;51.10;99604.77;232847;206;137568;-52
2024/04/22 19:54:17;;;;;;;12.50;6.00;;;;;;;7.26;51.44;99603.34;232686;203;137562;-53
2024/04/22 19:59:20;;;;;;;10.60;6.30;;;;;;;7.23;51.36;99606.98;232710;202;153319;-54
2024/04/22 20:04:23;;;;;;;14.50;8.30;;;;;;;7.22;52.14;99612.49;232632;206;138209;-52
2024/04/22 20:09:27;;;;;;;10.70;6.60;;;;;;;7.25;52.05;99610.76;232672;203;138356;-53
2024/04/22 20:14:30;;;;;;;9.00;6.30;;;;;;;7.22;51.62;99611.41;232434;207;153327;-52
2024/04/22 20:19:33;;;;;;;10.10;6.10;;;;;;;7.18;51.57;99610.32;232503;203;137213;-54
2024/04/22 20:24:36;;;;;;;10.30;6.50;;;;;;;7.13;51.82;99599.22;232433;206;137720;-52
2024/04/22 20:29:39;;;;;;;10.90;6.80;;;;;;;7.10;51.86;99600.92;232329;206;153543;-53
2024/04/22 20:34:42;;;;;;;10.40;6.10;;;;;;;7.08;51.64;99589.38;232400;199;138257;-52
2024/04/22 20:39:45;;;;;;;12.10;7.00;;;;;;;7.06;51.83;99582.39;232334;207;138044;-52
2024/04/22 20:44:48;;;;;;;13.10;7.00;;;;;;;7.04;51.86;99586.00;232414;206;153108;-52
2024/04/22 20:49:53;;;;;;;10.70;6.80;;;;;;;7.00;52.36;99585.44;232126;200;138276;-50
2024/04/22 20:54:56;;;;;;;11.40;6.80;;;;;;;6.97;52.50;99584.68;232484;204;139341;-52
2024/04/22 20:59:59;;;;;;;12.20;7.70;;;;;;;6.96;52.71;99588.07;232385;206;153731;-54
2024/04/22 21:05:03;;;;;;;11.50;7.20;;;;;;;6.94;52.57;99593.46;232252;203;138775;-53
2024/04/22 21:10:06;;;;;;;11.90;7.40;;;;;;;6.92;52.74;99601.30;232422;204;137166;-53
2024/04/22 21:15:09;;;;;;;10.00;6.50;;;;;;;6.91;52.87;99615.80;232377;207;153288;-53
2024/04/22 21:20:12;;;;;;;12.80;6.40;;;;;;;6.90;52.63;99629.60;232336;203;139044;-52
2024/04/22 21:25:15;;;;;;;10.30;6.50;;;;;;;6.92;52.58;99629.35;232544;206;138513;-52
2024/04/22 21:30:18;;;;;;;13.10;6.20;;;;;;;6.92;52.23;99622.10;232261;204;152965;-52
2024/04/22 21:35:21;;;;;;;10.90;6.10;;;;;;;6.89;52.26;99628.56;232241;199;137738;-54
2024/04/22 21:40:24;;;;;;;10.20;6.10;;;;;;;6.90;51.98;99626.44;232285;205;137321;-53
2024/04/22 21:45:27;;;;;;;9.90;6.30;;;;;;;6.89;51.76;99619.58;232354;204;153819;-54
2024/04/22 21:50:30;;;;;;;9.70;6.00;;;;;;;6.85;52.02;99614.40;232402;204;137468;-52
2024/04/22 21:55:41;;;;;;;11.70;6.10;;;;;;;6.83;52.06;99615.39;232474;203;138107;-53
2024/04/22 22:01:21;;;;;;;9.50;6.50;;;;;;;6.82;51.87;99619.99;232251;204;153170;-52
2024/04/22 22:07:02;;;;;;;11.40;6.50;;;;;;;6.81;52.08;99609.62;232326;206;138255;-52
2024/04/22 22:12:05;;;;;;;9.90;6.60;;;;;;;6.77;52.70;99598.69;232423;202;138184;-51
2024/04/22 22:17:12;;;;;;;10.50;6.80;;;;;;;6.71;52.83;99593.42;232376;202;153247;-55
2024/04/22 22:22:15;;;;;;;12.10;7.00;;;;;;;6.67;53.34;99581.06;232493;206;137556;-51
2024/04/22 22:27:18;;;;;;;10.70;6.70;;;;;;;6.61;53.45;99593.98;232431;206;137348;-54
2024/04/22 22:32:21;;;;;;;11.30;7.40;;;;;;;6.54;53.65;99604.64;232538;204;154353;-55
2024/04/22 22:37:24;;;;;;;11.80;7.50;;;;;;;6.50;53.99;99606.73;232505;202;137097;-54
2024/04/22 22:42:27;;;;;;;10.50;7.30;;;;;;;6.47;54.43;99598.71;232470;202;137965;-57
2024/04/22 22:47:30;;;;;;;13.00;7.90;;;;;;;6.43;54.61;99605.23;232406;203;153192;-55
2024/04/22 22:52:33;;;;;;;11.30;7.60;;;;;;;6.37;54.78;99619.33;232456;202;138689;-54
2024/04/22 22:57:36;;;;;;;13.50;7.80;;;;;;;6.37;54.74;99625.67;232515;205;137284;-52
2024/04/22 23:02:39;;;;;;;13.50;7.70;;;;;;;6.36;55.24;99626.98;232486;206;153250;-52
2024/04/22 23:07:42;;;;;;;12.80;8.60;;;;;;;6.35;55.59;99624.00;232570;203;137666;-55
2024/04/22 23:12:45;;;;;;;12.00;8.30;;;;;;;6.34;55.57;99623.66;232525;206;138050;-54
2024/04/22 23:17:48;;;;;;;15.10;8.60;;;;;;;6.35;55.83;99618.70;232448;203;153217;-54
2024/04/22 23:22:51;;;;;;;13.70;8.50;;;;;;;6.35;56.03;99616.27;232414;199;137980;-54
2024/04/22 23:27:54;;;;;;;15.10;8.20;;;;;;;6.37;55.91;99616.34;232472;203;137237;-54
2024/04/22 23:32:56;;;;;;;14.90;9.30;;;;;;;6.32;56.23;99613.18;232391;202;152911;-55
2024/04/22 23:38:00;;;;;;;16.40;9.30;;;;;;;6.30;56.55;99607.27;232451;202;137879;-55
2024/04/22 23:43:03;;;;;;;12.60;8.40;;;;;;;6.29;56.74;99600.44;232599;203;138530;-55
2024/04/22 23:48:06;;;;;;;15.40;9.10;;;;;;;6.28;56.73;99594.46;232406;204;153054;-52
2024/04/22 23:53:09;;;;;;;11.80;8.70;;;;;;;6.27;57.09;99587.80;232431;203;137443;-51